sensor_id;sensor_type;location;lat;lon;timestamp;P1;durP1;ratioP1;P2;durP2;ratioP2
9506;SDS011;4791;47.528;9.372;2023-09-19T00:22:32;3.17;;;1.33;;
9506;SDS011;4791;47.528;9.372;2023-09-19T00:37:34;1.43;;;0.90;;
9506;SDS011;4791;47.528;9.372;2023-09-19T00:52:49;3.57;;;0.90;;
9506;SDS011;4791;47.528;9.372;2023-09-19T01:08:15;4.90;;;1.00;;
9506;SDS011;4791;47.528;9.372;2023-09-19T01:38:57;2.10;;;1.02;;
9506;SDS011;4791;47.528;9.372;2023-09-19T01:54:01;1.87;;;1.00;;
9506;SDS011;4791;47.528;9.372;2023-09-19T02:09:10;3.73;;;1.10;;
9506;SDS011;4791;47.528;9.372;2023-09-19T02:40:01;2.47;;;0.90;;
9506;SDS011;4791;47.528;9.372;2023-09-19T02:55:20;2.27;;;0.80;;
9506;SDS011;4791;47.528;9.372;2023-09-19T03:10:22;2.57;;;1.03;;
9506;SDS011;4791;47.528;9.372;2023-09-19T03:25:23;1.97;;;0.80;;
9506;SDS011;4791;47.528;9.372;2023-09-19T03:40:41;1.80;;;0.90;;
9506;SDS011;4791;47.528;9.372;2023-09-19T03:55:41;2.40;;;0.70;;
9506;SDS011;4791;47.528;9.372;2023-09-19T04:11:04;1.65;;;0.73;;
9506;SDS011;4791;47.528;9.372;2023-09-19T04:26:07;1.35;;;0.70;;
9506;SDS011;4791;47.528;9.372;2023-09-19T04:41:18;3.17;;;1.10;;
9506;SDS011;4791;47.528;9.372;2023-09-19T04:56:22;3.70;;;0.80;;
9506;SDS011;4791;47.528;9.372;2023-09-19T05:11:28;3.77;;;1.00;;
9506;SDS011;4791;47.528;9.372;2023-09-19T05:26:48;1.97;;;1.10;;
9506;SDS011;4791;47.528;9.372;2023-09-19T05:41:48;1.83;;;1.00;;
9506;SDS011;4791;47.528;9.372;2023-09-19T05:56:54;1.30;;;0.80;;
9506;SDS011;4791;47.528;9.372;2023-09-19T06:11:54;1.33;;;0.90;;
9506;SDS011;4791;47.528;9.372;2023-09-19T06:26:57;1.47;;;0.70;;
9506;SDS011;4791;47.528;9.372;2023-09-19T06:41:57;1.23;;;0.70;;
9506;SDS011;4791;47.528;9.372;2023-09-19T06:57:05;1.23;;;0.70;;
9506;SDS011;4791;47.528;9.372;2023-09-19T07:12:06;1.93;;;0.93;;
9506;SDS011;4791;47.528;9.372;2023-09-19T07:27:06;1.80;;;0.80;;
9506;SDS011;4791;47.528;9.372;2023-09-19T07:42:07;1.45;;;0.70;;
9506;SDS011;4791;47.528;9.372;2023-09-19T07:57:07;1.10;;;0.60;;
9506;SDS011;4791;47.528;9.372;2023-09-19T08:12:08;2.30;;;0.80;;
9506;SDS011;4791;47.528;9.372;2023-09-19T08:27:10;1.50;;;0.70;;
9506;SDS011;4791;47.528;9.372;2023-09-19T08:42:12;2.10;;;0.70;;
9506;SDS011;4791;47.528;9.372;2023-09-19T08:57:13;2.08;;;0.88;;
9506;SDS011;4791;47.528;9.372;2023-09-19T09:12:21;3.97;;;0.90;;
9506;SDS011;4791;47.528;9.372;2023-09-19T09:27:25;2.00;;;0.90;;
9506;SDS011;4791;47.528;9.372;2023-09-19T09:57:32;3.50;;;1.10;;
9506;SDS011;4791;47.528;9.372;2023-09-19T10:12:33;1.80;;;0.77;;
9506;SDS011;4791;47.528;9.372;2023-09-19T10:27:38;2.47;;;0.80;;
9506;SDS011;4791;47.528;9.372;2023-09-19T10:42:39;2.83;;;1.00;;
9506;SDS011;4791;47.528;9.372;2023-09-19T10:57:43;1.60;;;0.80;;
9506;SDS011;4791;47.528;9.372;2023-09-19T11:12:48;3.55;;;0.80;;
9506;SDS011;4791;47.528;9.372;2023-09-19T11:43:28;3.10;;;1.03;;
9506;SDS011;4791;47.528;9.372;2023-09-19T11:58:31;2.47;;;1.00;;
9506;SDS011;4791;47.528;9.372;2023-09-19T12:13:33;2.60;;;0.97;;
9506;SDS011;4791;47.528;9.372;2023-09-19T12:28:37;2.87;;;1.00;;
9506;SDS011;4791;47.528;9.372;2023-09-19T12:43:42;1.90;;;0.80;;
9506;SDS011;4791;47.528;9.372;2023-09-19T13:29:15;2.37;;;0.70;;
9506;SDS011;4791;47.528;9.372;2023-09-19T13:44:18;1.80;;;0.60;;
9506;SDS011;4791;47.528;9.372;2023-09-19T13:59:18;2.08;;;0.80;;
9506;SDS011;4791;47.528;9.372;2023-09-19T14:14:19;2.28;;;0.63;;
9506;SDS011;4791;47.528;9.372;2023-09-19T14:29:22;2.17;;;0.70;;
9506;SDS011;4791;47.528;9.372;2023-09-19T14:44:23;1.30;;;0.60;;
9506;SDS011;4791;47.528;9.372;2023-09-19T14:59:23;2.30;;;0.70;;
9506;SDS011;4791;47.528;9.372;2023-09-19T15:14:24;1.60;;;0.90;;
9506;SDS011;4791;47.528;9.372;2023-09-19T15:29:25;1.95;;;0.90;;
9506;SDS011;4791;47.528;9.372;2023-09-19T15:44:25;1.13;;;0.55;;
9506;SDS011;4791;47.528;9.372;2023-09-19T15:59:28;1.60;;;0.63;;
9506;SDS011;4791;47.528;9.372;2023-09-19T16:14:30;1.60;;;0.70;;
9506;SDS011;4791;47.528;9.372;2023-09-19T16:29:31;1.45;;;0.75;;
9506;SDS011;4791;47.528;9.372;2023-09-19T16:44:32;2.65;;;0.80;;
9506;SDS011;4791;47.528;9.372;2023-09-19T16:59:33;2.70;;;0.80;;
9506;SDS011;4791;47.528;9.372;2023-09-19T17:14:33;1.57;;;0.80;;
9506;SDS011;4791;47.528;9.372;2023-09-19T17:29:35;2.30;;;1.30;;
9506;SDS011;4791;47.528;9.372;2023-09-19T17:44:36;4.90;;;1.00;;
9506;SDS011;4791;47.528;9.372;2023-09-19T17:59:38;3.97;;;1.10;;
9506;SDS011;4791;47.528;9.372;2023-09-19T18:14:39;2.60;;;1.27;;
9506;SDS011;4791;47.528;9.372;2023-09-19T18:29:39;2.10;;;1.10;;
9506;SDS011;4791;47.528;9.372;2023-09-19T18:44:43;5.03;;;2.23;;
9506;SDS011;4791;47.528;9.372;2023-09-19T18:59:45;4.30;;;1.83;;
9506;SDS011;4791;47.528;9.372;2023-09-19T19:14:45;2.60;;;1.50;;
9506;SDS011;4791;47.528;9.372;2023-09-19T19:29:46;2.20;;;1.00;;
9506;SDS011;4791;47.528;9.372;2023-09-19T19:44:47;3.30;;;1.43;;
9506;SDS011;4791;47.528;9.372;2023-09-19T19:59:54;2.40;;;1.40;;
9506;SDS011;4791;47.528;9.372;2023-09-19T20:14:54;4.00;;;1.40;;
9506;SDS011;4791;47.528;9.372;2023-09-19T20:29:56;2.30;;;1.40;;
9506;SDS011;4791;47.528;9.372;2023-09-19T20:44:56;1.83;;;1.10;;
9506;SDS011;4791;47.528;9.372;2023-09-19T20:59:58;3.17;;;1.63;;
9506;SDS011;4791;47.528;9.372;2023-09-19T21:15:01;2.43;;;1.70;;
9506;SDS011;4791;47.528;9.372;2023-09-19T21:30:05;1.80;;;1.30;;
9506;SDS011;4791;47.528;9.372;2023-09-19T21:45:07;2.73;;;1.50;;
9506;SDS011;4791;47.528;9.372;2023-09-19T22:00:08;3.93;;;1.27;;
9506;SDS011;4791;47.528;9.372;2023-09-19T22:15:23;3.67;;;1.50;;
9506;SDS011;4791;47.528;9.372;2023-09-19T22:30:23;3.90;;;1.70;;
9506;SDS011;4791;47.528;9.372;2023-09-19T22:45:24;2.17;;;1.30;;
9506;SDS011;4791;47.528;9.372;2023-09-19T23:00:29;4.80;;;1.30;;
9506;SDS011;4791;47.528;9.372;2023-09-19T23:15:36;3.03;;;1.47;;
9506;SDS011;4791;47.528;9.372;2023-09-19T23:30:37;2.40;;;1.43;;
9506;SDS011;4791;47.528;9.372;2023-09-19T23:45:40;3.30;;;1.30;;
